Time;durP1;ratioP1;P1;durP2;ratioP2;P2;SDS_P1;SDS_P2;PMS_P1;PMS_P2;Temp;Humidity;BMP_temperature;BMP_pressure;BME280_temperature;BME280_humidity;BME280_pressure;Samples;Min_cycle;Max_cycle;Signal;HPM_P1;HPM_P2
2022/04/11 00:00:49;;;;;;;4.40;2.90;;;;;;;5.86;55.78;100162.06;4484317;32;34304;-72
2022/04/11 00:03:17;;;;;;;5.45;3.17;;;;;;;5.11;57.74;100159.47;4483907;32;34495;-71
2022/04/11 00:05:44;;;;;;;4.78;3.40;;;;;;;5.57;56.55;100158.72;4484013;32;34070;-71
2022/04/11 00:08:12;;;;;;;4.70;3.30;;;;;;;5.69;56.26;100161.66;4484085;32;34298;-71
2022/04/11 00:10:39;;;;;;;4.45;3.28;;;;;;;5.30;57.02;100160.56;4484023;32;34703;-72
2022/04/11 00:13:07;;;;;;;4.82;3.25;;;;;;;5.67;56.17;100155.63;4483966;32;34689;-70
2022/04/11 00:15:39;;;;;;;4.62;3.08;;;;;;;5.52;56.23;100159.34;4484118;32;33409;-71
2022/04/11 00:18:07;;;;;;;4.62;3.17;;;;;;;5.38;57.23;100162.22;4483470;32;33440;-71
2022/04/11 00:20:36;;;;;;;4.65;3.47;;;;;;;4.83;58.62;100167.66;4484385;32;33756;-71
2022/04/11 00:23:04;;;;;;;5.15;3.35;;;;;;;4.99;58.27;100166.47;4483462;32;34033;-71
2022/04/11 00:25:32;;;;;;;6.65;3.72;;;;;;;4.62;59.41;100172.13;4482532;32;34536;-72
2022/04/11 00:28:00;;;;;;;5.07;3.47;;;;;;;4.26;60.70;100173.16;4484250;32;33386;-72
2022/04/11 00:30:27;;;;;;;5.03;3.05;;;;;;;4.39;60.20;100167.03;4483883;32;34178;-71
2022/04/11 00:32:55;;;;;;;5.75;3.62;;;;;;;4.46;59.82;100167.91;4483618;31;33343;-72
2022/04/11 00:35:23;;;;;;;5.47;3.72;;;;;;;4.75;59.61;100175.91;4483877;32;34576;-71
2022/04/11 00:37:50;;;;;;;4.75;3.67;;;;;;;4.51;59.50;100176.22;4483968;32;33561;-71
2022/04/11 00:40:19;;;;;;;5.43;3.62;;;;;;;4.07;60.81;100184.59;4482324;32;34055;-72
2022/04/11 00:42:49;;;;;;;5.55;3.42;;;;;;;4.28;60.44;100181.88;4482129;32;34643;-70
2022/04/11 00:45:17;;;;;;;4.62;3.42;;;;;;;4.06;61.08;100183.78;4483609;32;33836;-72
2022/04/11 00:47:47;;;;;;;4.50;3.30;;;;;;;4.01;61.26;100183.53;4483504;32;33292;-70
2022/04/11 00:50:15;;;;;;;4.95;3.67;;;;;;;4.19;60.71;100187.56;4483472;32;33942;-70
2022/04/11 00:52:50;;;;;;;5.37;3.78;;;;;;;4.16;60.65;100188.78;4483134;32;33915;-71
2022/04/11 00:55:20;;;;;;;5.18;3.30;;;;;;;4.50;59.75;100192.53;4483786;32;33897;-71
2022/04/11 00:57:48;;;;;;;5.07;3.40;;;;;;;3.97;61.13;100189.47;4482001;32;33322;-71
2022/04/11 01:00:16;;;;;;;5.90;3.60;;;;;;;4.30;60.09;100197.78;4482185;32;33855;-71
2022/04/11 01:02:44;;;;;;;4.90;3.10;;;;;;;4.73;58.82;100198.44;4482970;32;34765;-71
2022/04/11 01:05:13;;;;;;;5.20;3.60;;;;;;;5.04;58.74;100194.44;4483245;32;34314;-72
2022/04/11 01:07:42;;;;;;;6.30;3.62;;;;;;;4.18;60.17;100188.59;4483319;32;33380;-71
2022/04/11 01:10:09;;;;;;;4.70;3.12;;;;;;;4.26;59.80;100193.84;4482166;32;34856;-71
2022/04/11 01:12:37;;;;;;;5.72;3.60;;;;;;;4.39;59.57;100193.09;4483238;32;34695;-71
2022/04/11 01:15:05;;;;;;;5.05;3.62;;;;;;;4.36;60.01;100196.97;4482966;32;33460;-71
2022/04/11 01:17:35;;;;;;;5.90;3.70;;;;;;;4.38;59.94;100188.72;4481836;32;33771;-72
2022/04/11 01:20:12;;;;;;;6.87;3.78;;;;;;;3.92;61.25;100194.62;4482151;32;34022;-71
2022/04/11 01:22:41;;;;;;;4.80;3.55;;;;;;;3.73;62.27;100193.41;4483110;32;33989;-71
2022/04/11 01:25:13;;;;;;;4.53;3.35;;;;;;;4.20;60.61;100191.94;4482047;32;33280;-71
2022/04/11 01:27:42;;;;;;;5.18;3.33;;;;;;;4.73;59.15;100190.38;4483009;32;33374;-71
2022/04/11 01:30:12;;;;;;;6.35;3.70;;;;;;;4.86;58.65;100204.88;4484148;32;33513;-72
2022/04/11 01:32:40;;;;;;;4.97;3.33;;;;;;;4.76;58.90;100199.91;4484292;32;33940;-71
2022/04/11 01:35:24;;;;;;;5.20;3.40;;;;;;;4.43;59.61;100205.09;4485546;32;34595;-72
2022/04/11 01:37:52;;;;;;;4.70;3.47;;;;;;;4.45;59.68;100211.09;4485363;32;33481;-71
2022/04/11 01:40:21;;;;;;;5.90;3.87;;;;;;;4.04;60.54;100209.16;4485296;32;33837;-71
2022/04/11 01:42:48;;;;;;;5.62;3.50;;;;;;;4.61;59.58;100212.63;4484057;32;33893;-70
2022/04/11 01:45:16;;;;;;;4.70;3.33;;;;;;;4.39;59.72;100214.59;4485290;32;34612;-71
2022/04/11 01:47:46;;;;;;;5.22;3.50;;;;;;;4.24;60.53;100220.88;4485526;32;33272;-72
2022/04/11 01:50:14;;;;;;;6.90;3.40;;;;;;;4.26;60.22;100220.69;4485605;32;34550;-71
2022/04/11 01:52:41;;;;;;;5.62;3.83;;;;;;;4.65;59.65;100219.28;4484827;32;33832;-71
2022/04/11 01:55:09;;;;;;;5.22;3.45;;;;;;;4.30;60.82;100219.28;4485242;32;33898;-72
2022/04/11 01:57:44;;;;;;;6.65;3.70;;;;;;;4.78;59.15;100222.03;4484053;32;33469;-72
2022/04/11 02:00:12;;;;;;;5.18;3.65;;;;;;;4.56;59.64;100220.44;4485295;32;34188;-72
2022/04/11 02:02:41;;;;;;;7.50;3.70;;;;;;;4.60;59.52;100227.94;4484572;32;34128;-72
2022/04/11 02:05:09;;;;;;;5.43;3.95;;;;;;;4.74;59.28;100223.47;4485133;32;34475;-71
2022/04/11 02:07:37;;;;;;;4.32;3.35;;;;;;;4.19;60.55;100226.03;4484892;32;33117;-72
2022/04/11 02:10:05;;;;;;;5.20;3.72;;;;;;;4.24;60.61;100228.94;4485138;32;33560;-72
2022/04/11 02:12:33;;;;;;;5.22;3.92;;;;;;;4.16;60.86;100223.72;4484789;32;34200;-70
2022/04/11 02:15:00;;;;;;;5.28;3.62;;;;;;;3.92;61.32;100226.81;4484754;32;33949;-71
2022/04/11 02:17:28;;;;;;;6.45;3.70;;;;;;;4.36;60.41;100231.91;4484733;32;33322;-71
2022/04/11 02:19:55;;;;;;;5.53;3.92;;;;;;;4.11;61.29;100231.53;4485212;32;34671;-70
2022/04/11 02:22:23;;;;;;;5.10;3.92;;;;;;;3.95;61.82;100235.31;4484513;32;34051;-70
2022/04/11 02:24:50;;;;;;;6.12;3.92;;;;;;;4.02;61.57;100228.16;4485054;32;33955;-71
2022/04/11 02:27:18;;;;;;;5.40;3.55;;;;;;;3.97;61.62;100235.94;4483549;32;33277;-71
2022/04/11 02:29:45;;;;;;;4.47;3.30;;;;;;;3.83;62.03;100243.06;4484347;32;33594;-71
2022/04/11 02:32:14;;;;;;;6.20;4.00;;;;;;;3.20;64.19;100245.50;4484303;32;35092;-70
2022/04/11 02:34:41;;;;;;;5.43;3.80;;;;;;;3.18;64.07;100241.34;4484705;32;33794;-70
2022/04/11 02:37:08;;;;;;;5.90;3.92;;;;;;;3.51;64.25;100251.63;4484827;32;33483;-70
2022/04/11 02:39:36;;;;;;;5.30;3.78;;;;;;;3.90;62.30;100241.25;4484815;32;33543;-69
2022/04/11 02:42:04;;;;;;;1.98;1.58;;;;;;;4.02;62.01;100240.75;4484685;32;34275;-71
2022/04/11 02:44:32;;;;;;;5.30;3.83;;;;;;;3.89;62.61;100242.28;4484965;32;34322;-71
2022/04/11 02:47:00;;;;;;;5.18;3.65;;;;;;;4.02;61.98;100248.81;4485144;32;33462;-71
2022/04/11 02:49:27;;;;;;;5.37;3.78;;;;;;;3.25;63.94;100239.56;4485034;32;34597;-71
2022/04/11 02:51:55;;;;;;;6.22;3.58;;;;;;;3.40;64.42;100243.03;4484606;32;34825;-70
2022/04/11 02:54:23;;;;;;;6.28;3.83;;;;;;;3.86;62.84;100250.72;4485188;32;33569;-71
2022/04/11 02:56:50;;;;;;;4.70;3.60;;;;;;;3.63;63.40;100250.09;4484940;32;33429;-71
2022/04/11 02:59:18;;;;;;;5.32;3.70;;;;;;;4.32;61.81;100252.97;4484674;32;33707;-72
2022/04/11 03:01:46;;;;;;;7.18;3.72;;;;;;;3.65;63.34;100256.94;4484395;32;34259;-71
2022/04/11 03:04:15;;;;;;;5.55;3.80;;;;;;;3.76;63.13;100257.44;4485030;32;34323;-71
2022/04/11 03:06:44;;;;;;;5.03;3.72;;;;;;;3.53;63.87;100252.25;4484981;32;34144;-69
2022/04/11 03:09:11;;;;;;;5.12;3.50;;;;;;;3.36;64.88;100260.53;4484737;32;34487;-71
2022/04/11 03:11:39;;;;;;;5.68;3.83;;;;;;;3.37;64.82;100259.53;4484421;32;34151;-70
2022/04/11 03:14:06;;;;;;;5.62;4.10;;;;;;;4.00;62.99;100258.91;4483876;32;34223;-71
2022/04/11 03:16:35;;;;;;;5.70;3.58;;;;;;;3.57;63.68;100254.37;4484924;32;34115;-71
2022/04/11 03:19:03;;;;;;;7.00;4.47;;;;;;;3.39;64.30;100270.03;4483461;32;34597;-71
2022/04/11 03:21:31;;;;;;;7.75;5.28;;;;;;;3.81;62.76;100263.91;4484300;32;34177;-72
2022/04/11 03:23:59;;;;;;;6.55;4.78;;;;;;;3.47;63.60;100264.56;4482222;32;33882;-68
2022/04/11 03:26:26;;;;;;;7.00;4.78;;;;;;;3.61;63.05;100257.50;4471197;32;33519;-69
2022/04/11 03:28:54;;;;;;;6.47;4.18;;;;;;;3.92;62.43;100269.78;4484453;32;33937;-69
2022/04/11 03:31:22;;;;;;;6.50;4.55;;;;;;;3.59;63.45;100264.91;4480280;32;34151;-67
2022/04/11 03:33:49;;;;;;;6.30;4.40;;;;;;;3.89;62.53;100266.44;4470037;32;33722;-71
2022/04/11 03:36:17;;;;;;;6.05;4.40;;;;;;;3.73;64.10;100273.94;4473183;32;33479;-73
2022/04/11 03:38:45;;;;;;;7.22;4.90;;;;;;;3.85;63.35;100285.81;4468956;32;34002;-72
2022/04/11 03:41:13;;;;;;;5.75;4.28;;;;;;;3.56;63.71;100276.00;4477099;32;35197;-68
2022/04/11 03:43:41;;;;;;;7.90;4.50;;;;;;;3.46;64.15;100285.22;4482954;32;34070;-67
2022/04/11 03:46:09;;;;;;;6.05;3.75;;;;;;;3.88;62.74;100286.25;4482572;32;33487;-68
2022/04/11 03:48:37;;;;;;;5.03;3.90;;;;;;;3.37;64.32;100290.84;4479981;32;34506;-74
2022/04/11 03:51:05;;;;;;;7.62;4.25;;;;;;;3.52;64.00;100294.37;4481661;32;34191;-74
2022/04/11 03:53:35;;;;;;;6.53;4.22;;;;;;;3.71;63.15;100295.56;4468817;32;34503;-70
2022/04/11 03:56:03;;;;;;;5.65;4.37;;;;;;;3.60;63.37;100298.75;4472419;32;33436;-67
2022/04/11 03:58:31;;;;;;;5.45;4.15;;;;;;;4.10;61.72;100295.16;4468489;32;33766;-71
2022/04/11 04:01:02;;;;;;;5.85;4.05;;;;;;;3.95;62.02;100297.06;4468748;32;33957;-74
2022/04/11 04:03:30;;;;;;;5.05;3.75;;;;;;;3.53;63.41;100304.06;4467918;32;34727;-73
2022/04/11 04:06:26;;;;;;;6.35;4.05;;;;;;;3.61;63.69;100301.28;4476017;32;33489;-72
2022/04/11 04:08:54;;;;;;;2.22;1.67;;;;;;;3.85;62.73;100297.38;4471094;32;34917;-68
2022/04/11 04:11:23;;;;;;;0.77;0.70;;;;;;;3.88;62.58;100299.66;4468207;32;34190;-73
2022/04/11 04:13:52;;;;;;;5.65;3.90;;;;;;;4.30;61.98;100306.06;4468061;32;33919;-71
2022/04/11 04:16:20;;;;;;;6.40;4.35;;;;;;;3.87;62.62;100305.25;4486871;31;33562;-76
2022/04/11 04:18:49;;;;;;;5.93;4.22;;;;;;;3.78;62.92;100312.59;4499482;31;33963;-71
2022/04/11 04:21:18;;;;;;;5.68;3.72;;;;;;;4.40;61.38;100308.41;4483642;32;33780;-72
2022/04/11 04:23:46;;;;;;;5.47;3.60;;;;;;;4.39;61.48;100313.97;4483625;32;33982;-73
2022/04/11 04:26:14;;;;;;;5.57;3.90;;;;;;;4.73;60.61;100318.59;4481243;31;34256;-66
2022/04/11 04:28:42;;;;;;;3.62;1.85;;;;;;;4.99;59.78;100317.91;4473559;31;33908;-67
2022/04/11 04:31:10;;;;;;;5.25;3.78;;;;;;;5.72;57.67;100317.38;4468571;32;33838;-67
2022/04/11 04:33:38;;;;;;;5.20;3.83;;;;;;;6.06;56.08;100324.53;4468243;32;34646;-68
2022/04/11 04:36:06;;;;;;;6.53;3.80;;;;;;;6.12;55.82;100320.19;4478770;32;33320;-68
2022/04/11 04:38:36;;;;;;;6.85;3.42;;;;;;;6.49;55.13;100328.69;4466423;32;34745;-67
2022/04/11 04:41:04;;;;;;;5.50;3.67;;;;;;;6.75;54.31;100331.38;4467548;32;34190;-67
2022/04/11 04:43:31;;;;;;;5.72;3.58;;;;;;;6.84;54.72;100333.84;4467066;32;34515;-66
2022/04/11 04:45:59;;;;;;;4.80;3.35;;;;;;;7.05;53.80;100332.78;4467760;32;33603;-67
2022/04/11 04:48:27;;;;;;;5.10;3.55;;;;;;;6.78;54.59;100335.50;4467505;32;34619;-67
2022/04/11 04:50:56;;;;;;;5.43;3.58;;;;;;;7.87;51.68;100342.00;4467494;32;34308;-67
2022/04/11 04:53:25;;;;;;;5.37;3.37;;;;;;;8.76;48.65;100342.81;4466340;32;34544;-68
2022/04/11 04:55:55;;;;;;;4.95;3.10;;;;;;;9.30;48.46;100345.00;4468161;32;33794;-70
2022/04/11 04:58:23;;;;;;;4.40;2.90;;;;;;;9.72;47.58;100345.09;4466807;32;34717;-69
2022/04/11 05:00:51;;;;;;;4.45;3.00;;;;;;;10.32;46.05;100341.56;4467478;32;35026;-67
2022/04/11 05:03:19;;;;;;;3.92;2.95;;;;;;;11.29;42.61;100343.84;4466977;32;33973;-67
2022/04/11 05:05:47;;;;;;;4.40;3.20;;;;;;;11.78;41.82;100344.31;4469583;32;33039;-69
2022/04/11 05:08:15;;;;;;;3.87;3.08;;;;;;;11.92;41.06;100338.59;4469518;32;34431;-66
2022/04/11 05:10:42;;;;;;;4.05;2.90;;;;;;;12.60;40.69;100343.06;4469161;32;33505;-68
2022/04/11 05:13:09;;;;;;;7.60;3.50;;;;;;;11.05;42.40;100346.59;4468927;32;33885;-67
2022/04/11 05:15:39;;;;;;;4.60;2.90;;;;;;;12.23;40.23;100346.25;4469326;32;34119;-74
2022/04/11 05:18:08;;;;;;;3.70;2.85;;;;;;;11.69;42.42;100349.31;4469440;32;34085;-72
2022/04/11 05:20:35;;;;;;;4.05;2.70;;;;;;;11.50;41.82;100350.53;4477225;32;34907;-74
2022/04/11 05:23:03;;;;;;;3.50;2.50;;;;;;;11.92;41.33;100352.19;4469033;32;34314;-73
2022/04/11 05:25:31;;;;;;;4.32;2.97;;;;;;;11.82;42.25;100350.91;4476482;32;33490;-69
2022/04/11 05:28:00;;;;;;;6.22;3.00;;;;;;;11.97;40.11;100346.88;4483300;32;34616;-72
2022/04/11 05:30:33;;;;;;;3.20;2.60;;;;;;;12.21;40.59;100353.03;4484873;32;33786;-74
2022/04/11 05:33:02;;;;;;;3.42;2.20;;;;;;;13.66;39.23;100346.75;4477854;32;33754;-71
2022/04/11 05:35:30;;;;;;;4.05;2.50;;;;;;;12.92;39.24;100353.38;4468158;32;33041;-71
2022/04/11 05:37:59;;;;;;;3.72;2.62;;;;;;;13.49;37.67;100346.81;4479471;32;33927;-71
2022/04/11 05:40:26;;;;;;;4.37;2.33;;;;;;;11.83;39.56;100346.28;4484848;32;34265;-70
2022/04/11 05:42:54;;;;;;;4.70;2.40;;;;;;;11.90;39.52;100357.91;4482983;32;33047;-72
2022/04/11 05:45:21;;;;;;;7.55;3.25;;;;;;;11.21;41.96;100352.34;4484862;32;34124;-70
2022/04/11 05:47:49;;;;;;;4.43;2.85;;;;;;;10.55;42.45;100347.03;4483705;32;33609;-70
2022/04/11 05:50:17;;;;;;;4.15;2.37;;;;;;;10.10;44.68;100352.91;4485019;32;34288;-70
2022/04/11 05:52:45;;;;;;;5.45;3.30;;;;;;;9.21;46.76;100350.72;4483257;32;33192;-71
2022/04/11 05:55:13;;;;;;;4.62;2.80;;;;;;;9.61;47.44;100355.69;4483428;31;32594;-70
2022/04/11 05:57:40;;;;;;;3.65;2.25;;;;;;;10.24;46.09;100357.09;4481586;32;33616;-74
2022/04/11 06:00:09;;;;;;;2.97;2.35;;;;;;;10.58;45.58;100362.87;4483670;32;33762;-71
2022/04/11 06:02:39;;;;;;;3.45;2.53;;;;;;;10.74;43.66;100358.63;4484346;32;33829;-69
2022/04/11 06:05:09;;;;;;;3.62;2.42;;;;;;;12.25;41.31;100371.34;4474272;32;32695;-72
2022/04/11 06:07:38;;;;;;;4.40;2.28;;;;;;;12.62;40.99;100367.34;4483098;32;33881;-71
2022/04/11 06:10:07;;;;;;;3.28;2.42;;;;;;;13.67;37.99;100354.69;4485014;32;34745;-69
2022/04/11 06:12:36;;;;;;;6.62;3.37;;;;;;;14.08;38.40;100362.50;4483052;32;34273;-73
2022/04/11 06:15:04;;;;;;;3.85;2.55;;;;;;;12.67;39.38;100357.34;4484501;32;34105;-74
2022/04/11 06:17:32;;;;;;;4.55;2.70;;;;;;;14.09;37.40;100353.22;4482699;32;33559;-70
2022/04/11 06:20:00;;;;;;;4.35;2.37;;;;;;;15.28;35.67;100355.84;4484275;32;34162;-70
2022/04/11 06:22:29;;;;;;;3.60;2.47;;;;;;;14.63;36.69;100349.66;4481994;32;33724;-73
2022/04/11 06:25:00;;;;;;;3.90;2.50;;;;;;;15.85;34.06;100348.69;4484857;32;33528;-70
2022/04/11 06:27:28;;;;;;;3.10;2.20;;;;;;;15.70;35.46;100347.56;4477208;32;33976;-71
2022/04/11 06:29:58;;;;;;;4.10;2.40;;;;;;;17.30;30.86;100343.81;4468963;32;34548;-75
2022/04/11 06:32:28;;;;;;;3.87;2.37;;;;;;;17.48;31.98;100350.59;4468980;32;35152;-71
2022/04/11 06:34:57;;;;;;;3.95;2.45;;;;;;;16.88;32.67;100347.72;4468944;32;33422;-71
2022/04/11 06:37:25;;;;;;;3.15;2.50;;;;;;;16.01;32.66;100349.59;4468557;32;33891;-75
2022/04/11 06:39:54;;;;;;;4.78;2.30;;;;;;;16.36;32.76;100348.81;4468618;32;34055;-70
2022/04/11 06:42:22;;;;;;;6.12;2.78;;;;;;;16.44;31.46;100352.94;4468022;32;33694;-71
2022/04/11 06:44:49;;;;;;;4.35;2.30;;;;;;;14.73;33.25;100350.56;4467856;32;33288;-73
2022/04/11 06:47:18;;;;;;;5.30;2.78;;;;;;;14.39;35.09;100341.78;4470334;32;33970;-73
2022/04/11 06:49:46;;;;;;;2.97;2.17;;;;;;;15.54;34.74;100359.50;4473580;32;34287;-73
2022/04/11 06:52:13;;;;;;;4.55;2.40;;;;;;;15.61;33.72;100354.59;4468382;32;34020;-74
2022/04/11 06:54:41;;;;;;;4.12;2.33;;;;;;;14.68;35.37;100344.22;4468497;32;33444;-71
2022/04/11 06:57:08;;;;;;;4.57;2.72;;;;;;;15.86;35.47;100356.66;4467476;32;34067;-74
2022/04/11 06:59:36;;;;;;;2.80;1.90;;;;;;;16.01;34.91;100364.09;4469630;32;35104;-73
2022/04/11 07:02:03;;;;;;;5.97;2.78;;;;;;;14.46;34.88;100358.75;4476100;32;34006;-72
2022/04/11 07:04:31;;;;;;;4.57;2.70;;;;;;;15.22;36.34;100362.34;4484405;32;33238;-71
2022/04/11 07:06:59;;;;;;;4.47;2.42;;;;;;;14.81;35.98;100364.81;4484328;32;34792;-73
2022/04/11 07:09:27;;;;;;;3.53;2.42;;;;;;;16.32;33.41;100367.69;4482951;32;35129;-72
2022/04/11 07:11:56;;;;;;;7.30;3.00;;;;;;;17.28;32.32;100373.44;4483041;32;33629;-71
2022/04/11 07:14:23;;;;;;;3.37;2.30;;;;;;;16.79;32.42;100374.84;4482022;32;33546;-71
2022/04/11 07:16:52;;;;;;;3.45;2.20;;;;;;;14.99;34.85;100369.88;4477226;32;34115;-71
2022/04/11 07:19:20;;;;;;;5.37;2.67;;;;;;;13.22;37.65;100371.25;4475326;32;34659;-71
2022/04/11 07:21:47;;;;;;;5.07;2.80;;;;;;;12.89;40.38;100376.50;4483043;32;34367;-71
2022/04/11 07:24:15;;;;;;;5.43;2.80;;;;;;;14.26;38.50;100372.25;4482045;32;33976;-71
2022/04/11 07:26:43;;;;;;;7.25;3.55;;;;;;;13.22;39.61;100371.25;4482966;32;34597;-70
2022/04/11 07:29:10;;;;;;;4.35;2.72;;;;;;;12.88;41.44;100372.09;4478442;32;34706;-71
2022/04/11 07:31:37;;;;;;;3.58;2.58;;;;;;;12.61;41.55;100369.25;4468851;32;34683;-71
2022/04/11 07:34:05;;;;;;;2.85;2.33;;;;;;;13.36;41.42;100366.28;4469000;32;33438;-71
2022/04/11 07:36:32;;;;;;;4.37;2.75;;;;;;;12.23;43.17;100372.66;4469062;32;33957;-70
2022/04/11 07:39:00;;;;;;;3.22;2.33;;;;;;;13.50;40.02;100370.28;4471960;32;33422;-71
2022/04/11 07:41:27;;;;;;;3.28;2.40;;;;;;;13.08;40.31;100371.56;4483046;32;34717;-70
2022/04/11 07:43:57;;;;;;;4.18;2.35;;;;;;;13.01;41.62;100372.84;4484170;32;33526;-71
2022/04/11 07:46:24;;;;;;;4.72;2.60;;;;;;;12.11;40.86;100365.34;4484307;32;34028;-69
2022/04/11 07:48:52;;;;;;;4.68;2.53;;;;;;;13.07;40.05;100366.41;4481210;32;34214;-71
2022/04/11 07:51:19;;;;;;;3.22;2.35;;;;;;;14.66;38.69;100373.72;4467584;32;33944;-71
2022/04/11 07:53:46;;;;;;;4.62;2.75;;;;;;;14.43;38.66;100358.47;4468434;32;32711;-71
2022/04/11 07:56:14;;;;;;;3.42;2.30;;;;;;;13.97;38.23;100364.28;4468641;32;33717;-71
2022/04/11 07:58:41;;;;;;;3.87;2.62;;;;;;;12.01;42.51;100367.91;4469798;32;34391;-71
2022/04/11 08:01:16;;;;;;;3.15;2.10;;;;;;;11.75;42.25;100361.12;4484028;32;34554;-70
2022/04/11 08:03:44;;;;;;;;;;;;;;;13.41;40.86;100369.91;4482932;32;31730;-76
2022/04/11 08:06:11;;;;;;;3.53;2.10;;;;;;;13.90;38.78;100363.66;4482886;32;33321;-71
2022/04/11 08:08:44;;;;;;;4.30;2.40;;;;;;;14.65;39.08;100369.34;4482747;32;34529;-71
2022/04/11 08:11:12;;;;;;;3.92;2.28;;;;;;;14.09;38.41;100361.41;4467267;32;33866;-72
2022/04/11 08:13:47;;;;;;;5.00;2.05;;;;;;;14.84;37.73;100367.84;4466582;32;33313;-71
2022/04/11 08:16:15;;;;;;;4.62;2.50;;;;;;;14.85;35.89;100368.66;4472396;32;34911;-70
2022/04/11 08:18:43;;;;;;;3.95;2.58;;;;;;;14.05;39.55;100366.56;4482784;32;34033;-72
2022/04/11 08:21:10;;;;;;;5.20;2.85;;;;;;;13.16;38.91;100358.63;4454705;32;33383;-70
2022/04/11 08:23:38;;;;;;;4.12;2.42;;;;;;;12.79;39.95;100365.44;4466859;32;33222;-69
2022/04/11 08:26:05;;;;;;;2.85;2.25;;;;;;;13.26;41.67;100377.81;4468278;32;34742;-71
2022/04/11 08:28:33;;;;;;;4.97;2.33;;;;;;;13.78;40.76;100376.59;4468039;32;33811;-71
2022/04/11 08:31:00;;;;;;;3.58;2.70;;;;;;;12.91;40.36;100358.00;4468135;32;33657;-67
2022/04/11 08:33:28;;;;;;;3.90;2.53;;;;;;;12.00;40.97;100363.50;4481792;32;33470;-73
2022/04/11 08:35:55;;;;;;;4.15;2.50;;;;;;;12.70;43.84;100375.91;4483501;32;33827;-69
2022/04/11 08:38:23;;;;;;;3.53;2.17;;;;;;;13.71;39.89;100360.44;4483638;32;34019;-69
2022/04/11 08:40:54;;;;;;;4.20;2.47;;;;;;;13.77;39.86;100367.59;4485664;32;33854;-69
2022/04/11 08:43:23;;;;;;;3.00;2.33;;;;;;;13.71;41.36;100368.63;4471764;32;34135;-72
2022/04/11 08:45:55;;;;;;;4.47;2.50;;;;;;;13.60;37.62;100361.41;4469988;32;34108;-70
2022/04/11 08:48:23;;;;;;;3.90;2.30;;;;;;;13.75;39.95;100370.59;4468801;32;34137;-69
2022/04/11 08:50:50;;;;;;;3.00;2.10;;;;;;;14.50;38.37;100364.53;4469838;32;33744;-71
2022/04/11 08:53:21;;;;;;;3.95;2.53;;;;;;;14.07;37.97;100356.22;4482048;32;33104;-69
2022/04/11 08:55:49;;;;;;;3.37;2.45;;;;;;;14.98;38.10;100352.63;4485448;31;34091;-71
2022/04/11 08:58:16;;;;;;;3.37;2.25;;;;;;;13.67;40.03;100351.12;4484352;32;34017;-68
2022/04/11 09:00:45;;;;;;;4.15;2.53;;;;;;;14.35;39.28;100351.56;4485563;32;33629;-71
2022/04/11 09:03:12;;;;;;;3.90;2.65;;;;;;;13.73;41.03;100348.19;4471749;32;34321;-72
2022/04/11 09:05:39;;;;;;;2.67;2.10;;;;;;;12.28;42.43;100354.50;4469651;32;33903;-71
2022/04/11 09:08:07;;;;;;;3.28;2.22;;;;;;;13.39;41.20;100350.25;4470063;32;33937;-72
2022/04/11 09:10:38;;;;;;;3.15;2.37;;;;;;;13.85;41.28;100358.16;4468545;32;33920;-72
2022/04/11 09:13:09;;;;;;;3.58;2.50;;;;;;;14.52;37.92;100352.28;4480171;32;33354;-78
2022/04/11 09:15:41;;;;;;;3.30;2.33;;;;;;;12.87;41.53;100351.41;4484277;32;33988;-73
2022/04/11 09:18:09;;;;;;;3.40;2.30;;;;;;;12.37;42.61;100345.94;4484108;32;33776;-72
2022/04/11 09:20:40;;;;;;;3.83;2.40;;;;;;;11.77;41.93;100339.94;4484174;32;33788;-71
2022/04/11 09:23:18;;;;;;;3.53;2.70;;;;;;;11.35;41.57;100345.59;4474029;32;34003;-71
2022/04/11 09:25:46;;;;;;;2.65;2.05;;;;;;;12.71;44.15;100350.31;4468571;32;33485;-71
2022/04/11 09:28:14;;;;;;;4.05;2.37;;;;;;;13.45;38.60;100340.22;4468499;32;35035;-75
2022/04/11 09:30:44;;;;;;;3.70;2.55;;;;;;;13.12;43.09;100348.22;4469105;32;34739;-69
2022/04/11 09:33:12;;;;;;;3.17;2.05;;;;;;;13.49;40.03;100341.38;4471171;32;33063;-68
2022/04/11 09:35:43;;;;;;;3.08;2.20;;;;;;;14.08;41.24;100351.56;4485159;32;33948;-76
2022/04/11 09:38:18;;;;;;;4.00;2.22;;;;;;;12.73;42.99;100345.44;4485165;32;34165;-79
2022/04/11 09:40:50;;;;;;;4.68;2.67;;;;;;;12.87;43.42;100351.41;4470770;32;34549;-79
2022/04/11 09:43:24;;;;;;;4.50;2.67;;;;;;;14.30;41.24;100338.72;4479207;32;33494;-75
2022/04/11 09:45:52;;;;;;;3.33;2.37;;;;;;;14.81;37.55;100332.84;4483802;32;34667;-69
2022/04/11 09:48:23;;;;;;;3.80;2.20;;;;;;;14.36;37.22;100339.56;4485292;32;34980;-70
2022/04/11 09:50:53;;;;;;;7.03;3.33;;;;;;;14.73;36.12;100339.63;4483179;32;33733;-75
2022/04/11 09:53:23;;;;;;;4.50;2.83;;;;;;;13.62;37.96;100342.88;4459000;32;33572;-69
2022/04/11 09:55:52;;;;;;;4.12;2.70;;;;;;;12.91;39.36;100346.25;4467909;32;34906;-70
2022/04/11 09:58:22;;;;;;;3.35;2.30;;;;;;;13.46;39.72;100350.06;4469344;32;34204;-75
2022/04/11 10:00:51;;;;;;;3.80;2.30;;;;;;;13.28;39.38;100349.28;4467724;32;34840;-76
2022/04/11 10:03:22;;;;;;;4.55;2.67;;;;;;;13.77;37.92;100339.53;4479948;32;33240;-73
2022/04/11 10:05:51;;;;;;;3.22;2.50;;;;;;;13.26;39.69;100358.75;4484844;32;34106;-70
2022/04/11 10:08:18;;;;;;;3.28;2.40;;;;;;;13.50;37.75;100341.13;4476822;32;33791;-70
2022/04/11 10:10:46;;;;;;;3.87;2.60;;;;;;;13.64;37.75;100338.81;4469611;32;33376;-69
2022/04/11 10:13:15;;;;;;;3.15;2.45;;;;;;;12.07;41.12;100342.47;4483317;32;33392;-75
2022/04/11 10:15:49;;;;;;;4.70;2.72;;;;;;;12.58;41.13;100347.12;4483376;32;33766;-73
2022/04/11 10:18:21;;;;;;;3.78;2.25;;;;;;;12.22;40.08;100338.34;4484911;32;35022;-73
2022/04/11 10:20:51;;;;;;;3.42;2.08;;;;;;;12.27;40.22;100343.88;4484597;32;34003;-68
2022/04/11 10:23:47;;;;;;;3.00;2.03;;;;;;;13.40;39.11;100340.16;4484413;32;32906;-69
2022/04/11 10:26:17;;;;;;;3.28;1.98;;;;;;;12.37;35.99;100348.66;4483526;32;33857;-68
2022/04/11 10:28:51;;;;;;;2.28;2.00;;;;;;;12.41;37.37;100349.81;4484277;32;35225;-74
2022/04/11 10:31:19;;;;;;;;;;;;;;;12.88;36.60;100349.50;4485113;32;34668;-72
2022/04/11 10:33:54;;;;;;;3.37;2.08;;;;;;;11.85;38.61;100338.72;4483315;32;33976;-71
2022/04/11 10:36:29;;;;;;;2.00;1.80;;;;;;;12.60;40.24;100336.81;4483066;32;33505;-74
2022/04/11 10:39:24;;;;;;;2.08;1.60;;;;;;;13.11;36.24;100348.47;4484772;32;33878;-70
2022/04/11 10:41:55;;;;;;;1.70;1.40;;;;;;;13.11;34.14;100357.47;4480602;32;33820;-69
2022/04/11 10:44:32;;;;;;;1.95;1.60;;;;;;;13.74;32.45;100343.59;4484804;32;33308;-70
2022/04/11 10:47:11;;;;;;;2.58;1.60;;;;;;;14.59;31.59;100337.62;4484866;32;34090;-72
2022/04/11 10:49:44;;;;;;;3.33;1.55;;;;;;;13.99;30.47;100334.84;4484450;32;35068;-69
2022/04/11 10:52:27;;;;;;;3.15;1.92;;;;;;;13.07;34.70;100350.06;4483438;32;34268;-70
2022/04/11 10:54:55;;;;;;;1.55;1.40;;;;;;;11.96;34.13;100335.16;4484348;32;34394;-72
2022/04/11 10:57:36;;;;;;;3.22;2.00;;;;;;;12.56;32.86;100339.19;4483227;32;33838;-72
2022/04/11 11:00:13;;;;;;;2.15;1.90;;;;;;;11.23;33.95;100334.78;4484513;32;34236;-72
2022/04/11 11:02:50;;;;;;;2.55;1.87;;;;;;;12.20;36.33;100337.75;4483013;32;33955;-72
2022/04/11 11:05:38;;;;;;;4.00;1.87;;;;;;;12.74;35.66;100332.66;4484327;31;34178;-72
2022/04/11 11:08:11;;;;;;;2.95;2.00;;;;;;;13.04;35.31;100337.72;4484579;32;34767;-71
2022/04/11 11:10:46;;;;;;;2.60;1.83;;;;;;;12.62;34.40;100337.38;4484456;32;35040;-72
2022/04/11 11:13:32;;;;;;;3.28;1.90;;;;;;;13.58;33.12;100342.56;4484065;32;34139;-73
2022/04/11 11:16:20;;;;;;;1.98;1.55;;;;;;;14.08;32.56;100335.19;4484495;32;33586;-72
2022/04/11 11:19:07;;;;;;;3.95;2.20;;;;;;;14.11;30.37;100318.34;4450791;31;34830;-72
2022/04/11 11:21:37;;;;;;;2.50;1.80;;;;;;;15.31;29.38;100320.59;4472464;32;33828;-72
2022/04/11 11:24:04;;;;;;;2.08;1.77;;;;;;;15.71;31.33;100323.75;4469477;32;34745;-73
2022/04/11 11:26:45;;;;;;;2.55;2.17;;;;;;;14.96;31.62;100326.66;4468722;32;33461;-71
2022/04/11 11:29:14;;;;;;;2.80;2.20;;;;;;;14.01;31.28;100320.94;4469374;32;33842;-72
2022/04/11 11:31:42;;;;;;;2.92;2.10;;;;;;;13.02;32.59;100326.25;4478311;32;34058;-72
2022/04/11 11:34:12;;;;;;;3.50;2.28;;;;;;;13.05;33.46;100322.25;4483145;32;33737;-72
2022/04/11 11:36:40;;;;;;;2.55;1.85;;;;;;;13.56;35.37;100320.19;4482935;32;33407;-72
2022/04/11 11:39:29;;;;;;;2.65;1.85;;;;;;;14.60;31.99;100322.84;4473256;31;33662;-71